Time;durP1;ratioP1;P1;durP2;ratioP2;P2;SDS_P1;SDS_P2;PMS_P1;PMS_P2;Temp;Humidity;BMP_temperature;BMP_pressure;BME280_temperature;BME280_humidity;BME280_pressure;Samples;Min_cycle;Max_cycle;Signal;HPM_P1;HPM_P2
2023/06/12 00:00:07;;;;;;;6.13;5.37;;;;;;;;;;4959761;28;20443;-84
2023/06/12 00:02:34;;;;;;;7.20;6.50;;;;;;;;;;4958009;28;20460;-81
2023/06/12 00:05:04;;;;;;;8.00;6.47;;;;;;;;;;4958468;28;20445;-84
2023/06/12 00:07:32;;;;;;;6.10;5.60;;;;;;;;;;4953659;28;20456;-80
2023/06/12 00:09:59;;;;;;;6.70;6.00;;;;;;;;;;4956545;28;20452;-85
2023/06/12 00:12:27;;;;;;;6.47;5.87;;;;;;;;;;4957602;28;20442;-81
2023/06/12 00:14:56;;;;;;;6.80;6.20;;;;;;;;;;4957255;28;20453;-79
2023/06/12 00:17:23;;;;;;;6.53;6.00;;;;;;;;;;4964844;28;20482;-82
2023/06/12 00:19:51;;;;;;;7.07;6.47;;;;;;;;;;4957923;28;20448;-83
2023/06/12 00:22:18;;;;;;;6.83;6.20;;;;;;;;;;4958139;28;20452;-82
2023/06/12 00:24:46;;;;;;;6.50;6.00;;;;;;;;;;4960543;28;20781;-79
2023/06/12 00:27:13;;;;;;;11.37;5.53;;;;;;;;;;4960352;28;20456;-80
2023/06/12 00:29:41;;;;;;;6.30;5.70;;;;;;;;;;4960404;28;20486;-83
2023/06/12 00:32:08;;;;;;;7.10;5.73;;;;;;;;;;4961595;29;20459;-84
2023/06/12 00:34:36;;;;;;;7.27;6.23;;;;;;;;;;4961334;28;20445;-82
2023/06/12 00:37:05;;;;;;;6.17;5.57;;;;;;;;;;4961337;28;20518;-80
2023/06/12 00:39:32;;;;;;;6.80;6.20;;;;;;;;;;4960947;28;20512;-79
2023/06/12 00:41:59;;;;;;;6.70;6.13;;;;;;;;;;4960682;28;20458;-82
2023/06/12 00:44:27;;;;;;;9.20;6.57;;;;;;;;;;4960891;28;20625;-82
2023/06/12 00:46:54;;;;;;;7.83;6.20;;;;;;;;;;4954145;28;20451;-81
2023/06/12 00:49:22;;;;;;;7.07;6.47;;;;;;;;;;4959661;28;20498;-81
2023/06/12 00:51:49;;;;;;;6.33;5.83;;;;;;;;;;4960541;28;20425;-83
2023/06/12 00:54:16;;;;;;;9.43;6.50;;;;;;;;;;4960387;28;20450;-81
2023/06/12 00:56:45;;;;;;;7.17;5.97;;;;;;;;;;4960303;28;20443;-81
2023/06/12 00:59:12;;;;;;;6.77;6.17;;;;;;;;;;4955940;28;20464;-84
2023/06/12 01:01:40;;;;;;;6.07;5.57;;;;;;;;;;4959729;28;20452;-77
2023/06/12 01:04:09;;;;;;;8.17;7.40;;;;;;;;;;4961495;28;20451;-82
2023/06/12 01:06:42;;;;;;;9.93;5.60;;;;;;;;;;4962041;28;20557;-77
2023/06/12 01:09:17;;;;;;;6.80;6.03;;;;;;;;;;4961875;28;20469;-87
2023/06/12 01:11:45;;;;;;;6.77;6.17;;;;;;;;;;4961666;28;20446;-80
2023/06/12 01:14:15;;;;;;;6.20;5.70;;;;;;;;;;4970150;28;20454;-82
2023/06/12 01:16:45;;;;;;;6.77;5.97;;;;;;;;;;4962080;28;20715;-81
2023/06/12 01:19:13;;;;;;;6.30;5.70;;;;;;;;;;4966986;28;20476;-81
2023/06/12 01:21:44;;;;;;;5.97;5.47;;;;;;;;;;4967467;28;20470;-84
2023/06/12 01:24:20;;;;;;;6.90;6.20;;;;;;;;;;4966060;28;20456;-81
2023/06/12 01:27:04;;;;;;;6.60;6.00;;;;;;;;;;4966075;28;20483;-86
2023/06/12 01:29:40;;;;;;;6.47;5.93;;;;;;;;;;4965348;28;20578;-86
2023/06/12 01:32:17;;;;;;;7.03;6.37;;;;;;;;;;4968078;28;20548;-82
2023/06/12 01:34:51;;;;;;;8.20;6.43;;;;;;;;;;4961945;28;20453;-81
2023/06/12 01:37:22;;;;;;;7.83;7.03;;;;;;;;;;4963395;28;20467;-83
2023/06/12 01:39:55;;;;;;;7.03;6.17;;;;;;;;;;4963501;28;20453;-81
2023/06/12 01:42:24;;;;;;;7.03;6.50;;;;;;;;;;4961547;28;20649;-80
2023/06/12 01:44:51;;;;;;;7.70;7.07;;;;;;;;;;4959374;28;20933;-82
2023/06/12 01:47:19;;;;;;;7.80;6.73;;;;;;;;;;4960260;28;20774;-85
2023/06/12 01:49:47;;;;;;;7.33;6.63;;;;;;;;;;4961937;28;20550;-83
2023/06/12 01:52:15;;;;;;;8.53;6.67;;;;;;;;;;4959774;28;20452;-83
2023/06/12 01:54:45;;;;;;;8.07;7.17;;;;;;;;;;4959864;28;20450;-83
2023/06/12 01:57:12;;;;;;;8.23;5.97;;;;;;;;;;4959868;28;20783;-81
2023/06/12 01:59:40;;;;;;;7.23;6.53;;;;;;;;;;4967923;28;20474;-79
2023/06/12 02:02:07;;;;;;;8.03;7.20;;;;;;;;;;4957931;28;20446;-80
2023/06/12 02:04:35;;;;;;;6.73;6.10;;;;;;;;;;4959077;28;20450;-81
2023/06/12 02:07:06;;;;;;;7.03;6.10;;;;;;;;;;4959970;28;20438;-80
2023/06/12 02:09:33;;;;;;;8.60;7.40;;;;;;;;;;4960075;28;20666;-86
2023/06/12 02:12:02;;;;;;;7.45;6.78;;;;;;;;;;4968407;28;20450;-83
2023/06/12 02:14:30;;;;;;;8.27;6.13;;;;;;;;;;4968813;28;20415;-79
2023/06/12 02:17:02;;;;;;;10.17;7.13;;;;;;;;;;4960273;28;20499;-84
2023/06/12 02:19:29;;;;;;;16.40;7.63;;;;;;;;;;4955651;28;20473;-85
2023/06/12 02:21:57;;;;;;;8.15;7.35;;;;;;;;;;4959589;28;20438;-78
2023/06/12 02:24:31;;;;;;;10.97;8.57;;;;;;;;;;4959069;28;20231;-84
2023/06/12 02:26:59;;;;;;;7.67;6.97;;;;;;;;;;4967080;28;20532;-80
2023/06/12 02:29:27;;;;;;;7.93;7.03;;;;;;;;;;4967825;28;20496;-83
2023/06/12 02:31:54;;;;;;;7.83;7.13;;;;;;;;;;4960803;29;20455;-82
2023/06/12 02:34:22;;;;;;;9.70;7.57;;;;;;;;;;4968449;28;20711;-80
2023/06/12 02:36:50;;;;;;;7.40;6.40;;;;;;;;;;4958475;28;20805;-83
2023/06/12 02:39:18;;;;;;;7.30;6.67;;;;;;;;;;4959822;28;20478;-78
2023/06/12 02:41:46;;;;;;;9.68;6.95;;;;;;;;;;4959385;28;20441;-86
2023/06/12 02:44:14;;;;;;;9.63;7.00;;;;;;;;;;4959238;28;20215;-81
2023/06/12 02:46:57;;;;;;;8.93;7.20;;;;;;;;;;4959806;28;20453;-80
2023/06/12 02:49:26;;;;;;;7.77;7.07;;;;;;;;;;4959614;28;20262;-81
2023/06/12 02:51:53;;;;;;;11.48;8.07;;;;;;;;;;4961825;28;20825;-84
2023/06/12 02:54:21;;;;;;;8.43;6.72;;;;;;;;;;4965965;28;20203;-84
2023/06/12 02:56:49;;;;;;;14.38;7.70;;;;;;;;;;4959720;28;20460;-83
2023/06/12 02:59:17;;;;;;;10.77;6.75;;;;;;;;;;4962912;28;20503;-81
2023/06/12 03:01:45;;;;;;;8.73;7.95;;;;;;;;;;4970374;28;20215;-84
2023/06/12 03:04:15;;;;;;;8.65;7.85;;;;;;;;;;4971141;28;20514;-83
2023/06/12 03:06:44;;;;;;;9.93;8.40;;;;;;;;;;4962648;28;20486;-85
2023/06/12 03:09:15;;;;;;;10.75;7.65;;;;;;;;;;4958998;28;20267;-82
2023/06/12 03:11:44;;;;;;;9.13;8.18;;;;;;;;;;4957233;28;20278;-84
2023/06/12 03:14:14;;;;;;;8.80;7.93;;;;;;;;;;4964916;28;20200;-83
2023/06/12 03:16:42;;;;;;;9.50;6.78;;;;;;;;;;4960024;28;20246;-82
2023/06/12 03:19:10;;;;;;;9.50;8.50;;;;;;;;;;4965283;28;20270;-83
2023/06/12 03:21:37;;;;;;;8.13;7.33;;;;;;;;;;4958766;28;20282;-79
2023/06/12 03:24:05;;;;;;;10.10;7.60;;;;;;;;;;4958651;28;20437;-82
2023/06/12 03:26:33;;;;;;;7.87;7.00;;;;;;;;;;4957430;28;20661;-82
2023/06/12 03:29:01;;;;;;;11.23;7.40;;;;;;;;;;4957858;28;20494;-81
2023/06/12 03:31:29;;;;;;;7.73;6.93;;;;;;;;;;4968827;28;20484;-82
2023/06/12 03:33:56;;;;;;;8.30;7.37;;;;;;;;;;4965920;28;20732;-83
2023/06/12 03:36:33;;;;;;;8.57;7.20;;;;;;;;;;4961022;28;20456;-80
2023/06/12 03:39:02;;;;;;;10.73;7.50;;;;;;;;;;4957555;28;20799;-86
2023/06/12 03:41:31;;;;;;;9.73;7.20;;;;;;;;;;4958911;28;20498;-84
2023/06/12 03:43:59;;;;;;;8.70;7.90;;;;;;;;;;4958523;28;20450;-83
2023/06/12 03:46:30;;;;;;;9.03;6.63;;;;;;;;;;4957241;28;20508;-78
2023/06/12 03:48:58;;;;;;;7.90;7.00;;;;;;;;;;4957485;28;20520;-82
2023/06/12 03:51:25;;;;;;;7.97;7.17;;;;;;;;;;4959807;28;21221;-82
2023/06/12 03:53:54;;;;;;;12.70;7.90;;;;;;;;;;4955253;28;20439;-79
2023/06/12 03:56:21;;;;;;;13.03;8.07;;;;;;;;;;4953628;28;20783;-81
2023/06/12 03:58:49;;;;;;;10.40;7.73;;;;;;;;;;4960773;28;20456;-83
2023/06/12 04:01:16;;;;;;;29.23;8.03;;;;;;;;;;4961801;28;20454;-87
2023/06/12 04:03:45;;;;;;;19.03;11.40;;;;;;;;;;4962563;28;20438;-81
2023/06/12 04:06:13;;;;;;;11.33;8.00;;;;;;;;;;4962607;28;20451;-81
2023/06/12 04:08:41;;;;;;;7.80;7.00;;;;;;;;;;4962422;28;20503;-82
2023/06/12 04:11:14;;;;;;;8.63;6.40;;;;;;;;;;4967352;28;20563;-84
2023/06/12 04:13:42;;;;;;;10.93;6.93;;;;;;;;;;4964623;28;20456;-84
2023/06/12 04:16:10;;;;;;;8.70;6.27;;;;;;;;;;4965464;28;20547;-84
2023/06/12 04:18:38;;;;;;;9.60;6.40;;;;;;;;;;4965801;28;20455;-87
2023/06/12 04:21:07;;;;;;;14.40;7.93;;;;;;;;;;4954575;28;20470;-85
2023/06/12 04:23:37;;;;;;;8.57;6.80;;;;;;;;;;4960538;28;20451;-86
2023/06/12 04:26:05;;;;;;;8.77;7.87;;;;;;;;;;4960647;28;20480;-83
2023/06/12 04:28:36;;;;;;;14.27;7.10;;;;;;;;;;4961064;28;20452;-84
2023/06/12 04:31:04;;;;;;;8.03;6.97;;;;;;;;;;4961261;28;20666;-82
2023/06/12 04:33:35;;;;;;;7.43;6.77;;;;;;;;;;4960223;28;20454;-81
2023/06/12 04:36:03;;;;;;;13.10;8.13;;;;;;;;;;4964293;28;20543;-82
2023/06/12 04:38:30;;;;;;;9.37;6.73;;;;;;;;;;4962639;28;20449;-86
2023/06/12 04:40:58;;;;;;;15.37;8.53;;;;;;;;;;4961146;28;20458;-86
2023/06/12 04:43:26;;;;;;;10.90;7.20;;;;;;;;;;4959458;28;20488;-82
2023/06/12 04:45:55;;;;;;;8.73;7.97;;;;;;;;;;4957294;28;20544;-82
2023/06/12 04:48:24;;;;;;;12.40;6.87;;;;;;;;;;4961780;28;20442;-85
2023/06/12 04:50:54;;;;;;;8.17;6.93;;;;;;;;;;4959611;28;20495;-81
2023/06/12 04:53:29;;;;;;;7.63;6.87;;;;;;;;;;4961020;28;20445;-82
2023/06/12 04:55:58;;;;;;;7.67;6.00;;;;;;;;;;4955224;28;20805;-81
2023/06/12 04:58:25;;;;;;;6.70;6.10;;;;;;;;;;4959982;28;20503;-86
2023/06/12 05:00:55;;;;;;;6.93;5.87;;;;;;;;;;4960144;29;20523;-83
2023/06/12 05:03:23;;;;;;;6.90;6.20;;;;;;;;;;4960290;28;20857;-82
2023/06/12 05:05:55;;;;;;;7.43;5.30;;;;;;;;;;4952292;28;20540;-84
2023/06/12 05:08:22;;;;;;;8.30;7.50;;;;;;;;;;4960227;28;20806;-82
2023/06/12 05:10:50;;;;;;;6.93;6.37;;;;;;;;;;4952876;28;20460;-81
2023/06/12 05:13:17;;;;;;;10.20;7.53;;;;;;;;;;4960989;28;20492;-84
2023/06/12 05:15:45;;;;;;;9.30;8.03;;;;;;;;;;4961823;28;20452;-86
2023/06/12 05:18:12;;;;;;;13.00;6.80;;;;;;;;;;4960784;29;20454;-82
2023/06/12 05:20:40;;;;;;;8.40;6.10;;;;;;;;;;4960688;28;20485;-85
2023/06/12 05:23:07;;;;;;;7.03;6.33;;;;;;;;;;4961078;28;20441;-85
2023/06/12 05:25:35;;;;;;;9.37;7.77;;;;;;;;;;4960889;28;20444;-78
2023/06/12 05:28:03;;;;;;;8.43;7.37;;;;;;;;;;4962944;28;20469;-84
2023/06/12 05:30:31;;;;;;;11.10;6.30;;;;;;;;;;4965823;28;20469;-80
2023/06/12 05:32:58;;;;;;;8.13;7.07;;;;;;;;;;4964627;28;20449;-89
2023/06/12 05:35:26;;;;;;;9.30;6.30;;;;;;;;;;4972988;28;20816;-86
2023/06/12 05:37:54;;;;;;;9.10;6.60;;;;;;;;;;4971095;28;20731;-86
2023/06/12 05:40:21;;;;;;;12.03;7.67;;;;;;;;;;4971150;28;20465;-80
2023/06/12 05:42:48;;;;;;;10.00;6.50;;;;;;;;;;4960292;28;20780;-83
2023/06/12 05:45:16;;;;;;;7.37;6.67;;;;;;;;;;4969380;28;20445;-80
2023/06/12 05:47:43;;;;;;;14.03;7.30;;;;;;;;;;4960518;28;20449;-81
2023/06/12 05:50:11;;;;;;;7.90;7.20;;;;;;;;;;4958559;28;20536;-81
2023/06/12 05:52:39;;;;;;;6.70;6.10;;;;;;;;;;4961356;28;20477;-90
2023/06/12 05:55:07;;;;;;;12.40;6.10;;;;;;;;;;4950111;28;20459;-83
2023/06/12 05:57:40;;;;;;;6.37;5.67;;;;;;;;;;4956747;28;20476;-86
2023/06/12 06:00:09;;;;;;;6.97;6.37;;;;;;;;;;4960262;28;20494;-85
2023/06/12 06:02:38;;;;;;;6.07;5.57;;;;;;;;;;4957177;28;20449;-82
2023/06/12 06:05:09;;;;;;;6.53;5.90;;;;;;;;;;4959763;28;20450;-82
2023/06/12 06:07:38;;;;;;;5.43;5.03;;;;;;;;;;4963512;28;20442;-80
2023/06/12 06:10:05;;;;;;;7.73;6.13;;;;;;;;;;4963381;28;20510;-78
2023/06/12 06:12:33;;;;;;;5.80;5.30;;;;;;;;;;4953479;28;20461;-79
2023/06/12 06:15:00;;;;;;;5.87;5.37;;;;;;;;;;4956668;28;20481;-80
2023/06/12 06:17:28;;;;;;;6.30;5.70;;;;;;;;;;4959609;28;20438;-84
2023/06/12 06:19:58;;;;;;;6.00;5.47;;;;;;;;;;4956907;28;20514;-80
2023/06/12 06:22:25;;;;;;;7.47;6.80;;;;;;;;;;4956520;28;20445;-81
2023/06/12 06:24:52;;;;;;;5.20;4.77;;;;;;;;;;4962279;28;20533;-79
2023/06/12 06:27:20;;;;;;;6.80;6.10;;;;;;;;;;4968327;28;20444;-84
2023/06/12 06:29:48;;;;;;;6.00;5.60;;;;;;;;;;4966033;28;20617;-82
2023/06/12 06:32:16;;;;;;;6.23;5.73;;;;;;;;;;4959884;28;20445;-84
2023/06/12 06:34:44;;;;;;;12.03;6.13;;;;;;;;;;4958496;28;20420;-83
2023/06/12 06:37:12;;;;;;;6.00;5.40;;;;;;;;;;4958752;28;20458;-83
2023/06/12 06:39:43;;;;;;;5.43;4.97;;;;;;;;;;4960749;28;20459;-84
2023/06/12 06:42:11;;;;;;;5.47;4.93;;;;;;;;;;4960520;28;20445;-82
2023/06/12 06:44:39;;;;;;;5.30;4.90;;;;;;;;;;4958821;28;20535;-80
2023/06/12 06:47:09;;;;;;;6.93;6.13;;;;;;;;;;4959542;28;20820;-83
2023/06/12 06:49:37;;;;;;;6.40;4.90;;;;;;;;;;4957246;28;20440;-84
2023/06/12 06:52:05;;;;;;;4.80;4.40;;;;;;;;;;4958539;28;20763;-84
2023/06/12 06:54:32;;;;;;;5.20;4.70;;;;;;;;;;4958482;28;20531;-82
2023/06/12 06:57:00;;;;;;;5.20;4.73;;;;;;;;;;4956755;28;20452;-80
2023/06/12 06:59:28;;;;;;;6.73;5.83;;;;;;;;;;4958146;28;20508;-84
2023/06/12 07:01:56;;;;;;;11.13;6.00;;;;;;;;;;4957064;28;20420;-79
2023/06/12 07:04:23;;;;;;;5.30;4.70;;;;;;;;;;4958402;28;20656;-83
2023/06/12 07:06:51;;;;;;;5.07;4.70;;;;;;;;;;4957339;28;20629;-85
2023/06/12 07:09:18;;;;;;;5.37;4.97;;;;;;;;;;4958228;28;20455;-82
2023/06/12 07:11:46;;;;;;;5.70;5.30;;;;;;;;;;4959399;28;20456;-82
2023/06/12 07:14:14;;;;;;;6.53;4.73;;;;;;;;;;4959008;28;20487;-81
2023/06/12 07:16:42;;;;;;;5.03;4.63;;;;;;;;;;4958960;28;20516;-78
2023/06/12 07:19:09;;;;;;;11.50;5.83;;;;;;;;;;4958692;28;20412;-79
2023/06/12 07:21:37;;;;;;;5.80;5.37;;;;;;;;;;4957803;28;20427;-84
2023/06/12 07:24:05;;;;;;;4.90;4.60;;;;;;;;;;4957703;28;20427;-80
2023/06/12 07:26:32;;;;;;;5.90;5.30;;;;;;;;;;4957301;28;20738;-80
2023/06/12 07:29:00;;;;;;;4.77;4.50;;;;;;;;;;4958154;28;20449;-84
2023/06/12 07:31:27;;;;;;;4.93;4.53;;;;;;;;;;4963487;28;20493;-80
2023/06/12 07:33:55;;;;;;;5.40;5.00;;;;;;;;;;4964617;28;20481;-82
2023/06/12 07:36:23;;;;;;;5.37;5.03;;;;;;;;;;4965515;28;20563;-81
2023/06/12 07:38:50;;;;;;;6.10;5.60;;;;;;;;;;4964471;28;20713;-79
2023/06/12 07:41:18;;;;;;;5.50;5.00;;;;;;;;;;4963548;29;20631;-78
2023/06/12 07:43:45;;;;;;;5.20;4.70;;;;;;;;;;4964423;28;20520;-84
2023/06/12 07:46:16;;;;;;;5.07;4.70;;;;;;;;;;4964404;28;20752;-81
2023/06/12 07:48:43;;;;;;;6.13;4.83;;;;;;;;;;4965059;28;20642;-84
2023/06/12 07:51:11;;;;;;;5.80;5.30;;;;;;;;;;4966552;29;20476;-79
2023/06/12 07:53:39;;;;;;;6.00;5.40;;;;;;;;;;4963400;28;20721;-82
2023/06/12 07:56:06;;;;;;;5.53;4.77;;;;;;;;;;4963969;28;20471;-86
2023/06/12 07:58:35;;;;;;;12.13;5.83;;;;;;;;;;4962925;28;20540;-78
2023/06/12 08:01:05;;;;;;;5.00;4.67;;;;;;;;;;4963314;28;20665;-80
2023/06/12 08:03:38;;;;;;;5.63;4.90;;;;;;;;;;4963985;28;20460;-83
2023/06/12 08:06:09;;;;;;;5.23;4.83;;;;;;;;;;4963496;28;20503;-80
2023/06/12 08:08:40;;;;;;;6.73;4.67;;;;;;;;;;4964384;28;20497;-80
2023/06/12 08:11:09;;;;;;;4.63;4.33;;;;;;;;;;4964749;28;20514;-84
2023/06/12 08:13:36;;;;;;;4.80;4.50;;;;;;;;;;4962630;28;20459;-80
2023/06/12 08:16:04;;;;;;;4.30;4.00;;;;;;;;;;4965053;28;20450;-83
2023/06/12 08:18:31;;;;;;;5.60;5.20;;;;;;;;;;4964258;28;20444;-81
2023/06/12 08:20:59;;;;;;;5.30;4.97;;;;;;;;;;4963530;28;20511;-81
2023/06/12 08:23:26;;;;;;;5.20;4.10;;;;;;;;;;4964844;28;21042;-80
2023/06/12 08:25:54;;;;;;;4.70;4.30;;;;;;;;;;4961169;28;20419;-80
2023/06/12 08:28:21;;;;;;;5.73;5.23;;;;;;;;;;4958319;28;20419;-78
2023/06/12 08:30:50;;;;;;;4.73;4.40;;;;;;;;;;4967170;28;20799;-82
2023/06/12 08:33:18;;;;;;;4.70;4.30;;;;;;;;;;4966638;28;20480;-84
2023/06/12 08:35:46;;;;;;;4.93;4.53;;;;;;;;;;4973176;28;20772;-84
2023/06/12 08:38:13;;;;;;;4.93;4.53;;;;;;;;;;4965426;28;20427;-84
2023/06/12 08:40:42;;;;;;;5.43;4.20;;;;;;;;;;4966043;28;20692;-80
2023/06/12 08:43:10;;;;;;;5.10;4.80;;;;;;;;;;4969574;28;20768;-81
2023/06/12 08:45:44;;;;;;;7.57;4.10;;;;;;;;;;4960616;28;20424;-80
2023/06/12 08:48:12;;;;;;;5.00;4.63;;;;;;;;;;4960268;28;20705;-82
2023/06/12 08:50:40;;;;;;;5.90;5.03;;;;;;;;;;4968935;28;20461;-86
2023/06/12 08:53:10;;;;;;;10.43;5.07;;;;;;;;;;4962055;28;20453;-81
2023/06/12 08:55:41;;;;;;;5.33;4.93;;;;;;;;;;4959959;28;20423;-79
2023/06/12 08:58:09;;;;;;;5.20;4.80;;;;;;;;;;4960408;28;20740;-82
2023/06/12 09:00:37;;;;;;;5.93;5.33;;;;;;;;;;4960081;28;20432;-79
2023/06/12 09:03:06;;;;;;;5.67;5.07;;;;;;;;;;4956240;28;20515;-83
2023/06/12 09:05:37;;;;;;;4.17;3.90;;;;;;;;;;4960717;28;20686;-84
2023/06/12 09:08:05;;;;;;;5.10;4.60;;;;;;;;;;4960006;28;20479;-79
2023/06/12 09:10:33;;;;;;;7.20;5.20;;;;;;;;;;4959694;28;20489;-81
2023/06/12 09:13:12;;;;;;;5.60;4.93;;;;;;;;;;4961176;28;20590;-82
2023/06/12 09:15:49;;;;;;;5.70;5.20;;;;;;;;;;4961419;28;20699;-84
2023/06/12 09:18:18;;;;;;;5.23;4.93;;;;;;;;;;4959456;28;20429;-81
2023/06/12 09:20:49;;;;;;;6.37;5.67;;;;;;;;;;4960651;28;20449;-81
2023/06/12 09:23:16;;;;;;;6.07;5.63;;;;;;;;;;4960697;28;20540;-80
2023/06/12 09:25:44;;;;;;;6.83;6.33;;;;;;;;;;4961811;28;20445;-82
2023/06/12 09:28:36;;;;;;;5.80;5.30;;;;;;;;;;4953842;28;20862;-79
2023/06/12 09:31:05;;;;;;;6.30;5.70;;;;;;;;;;4959597;28;20523;-80
2023/06/12 09:33:32;;;;;;;5.43;4.97;;;;;;;;;;4967093;28;20528;-84
2023/06/12 09:36:00;;;;;;;9.80;5.73;;;;;;;;;;4962697;28;20495;-78
2023/06/12 09:38:35;;;;;;;6.07;5.07;;;;;;;;;;4961093;28;20474;-80
2023/06/12 09:41:03;;;;;;;6.50;5.90;;;;;;;;;;4960127;28;20768;-82
2023/06/12 09:43:31;;;;;;;5.90;5.50;;;;;;;;;;4959903;28;20430;-81
2023/06/12 09:46:01;;;;;;;6.63;5.63;;;;;;;;;;4960713;28;20414;-79
2023/06/12 09:48:37;;;;;;;5.03;4.73;;;;;;;;;;4966291;28;20464;-84
2023/06/12 09:51:23;;;;;;;5.50;5.10;;;;;;;;;;4968298;28;20491;-82
2023/06/12 09:53:51;;;;;;;8.53;5.83;;;;;;;;;;4968265;28;20468;-77
2023/06/12 09:56:20;;;;;;;6.80;6.20;;;;;;;;;;4958277;28;20452;-81
2023/06/12 09:58:49;;;;;;;5.77;5.27;;;;;;;;;;4959035;28;20448;-78
2023/06/12 10:01:19;;;;;;;5.73;5.23;;;;;;;;;;4959361;29;20439;-79
2023/06/12 10:03:48;;;;;;;5.50;5.10;;;;;;;;;;4959401;28;20423;-81
2023/06/12 10:06:17;;;;;;;6.10;5.60;;;;;;;;;;4959685;28;20457;-82
2023/06/12 10:08:48;;;;;;;8.43;6.60;;;;;;;;;;4959080;28;20437;-79
2023/06/12 10:11:16;;;;;;;6.40;5.63;;;;;;;;;;4961243;28;20497;-79
2023/06/12 10:13:43;;;;;;;7.40;4.83;;;;;;;;;;4961241;28;20506;-87
2023/06/12 10:16:12;;;;;;;5.83;5.33;;;;;;;;;;4959179;28;20495;-80
2023/06/12 10:18:40;;;;;;;5.13;4.80;;;;;;;;;;4959234;28;20600;-85
2023/06/12 10:21:07;;;;;;;5.93;5.33;;;;;;;;;;4959290;28;20495;-79
2023/06/12 10:23:36;;;;;;;5.43;5.13;;;;;;;;;;4959217;28;20487;-82
2023/06/12 10:26:07;;;;;;;6.43;5.90;;;;;;;;;;4958404;28;20641;-82
2023/06/12 10:28:35;;;;;;;10.33;5.30;;;;;;;;;;4960399;28;20424;-80
2023/06/12 10:31:14;;;;;;;5.93;4.87;;;;;;;;;;4959108;28;20630;-81
2023/06/12 10:34:15;;;;;;;5.73;5.33;;;;;;;;;;4962868;28;20589;-79
2023/06/12 10:36:43;;;;;;;5.00;4.67;;;;;;;;;;4931017;28;20748;-81
2023/06/12 10:39:19;;;;;;;7.93;5.63;;;;;;;;;;4959101;28;20424;-82
2023/06/12 10:41:57;;;;;;;6.10;5.57;;;;;;;;;;4959328;28;20416;-79
2023/06/12 10:44:31;;;;;;;5.37;4.87;;;;;;;;;;4958809;28;20441;-80
2023/06/12 10:47:01;;;;;;;5.23;4.80;;;;;;;;;;4960311;28;20487;-81
2023/06/12 10:49:29;;;;;;;5.20;4.70;;;;;;;;;;4962780;28;20416;-87
2023/06/12 10:51:59;;;;;;;5.23;4.83;;;;;;;;;;4958810;28;20524;-81
2023/06/12 10:54:27;;;;;;;9.23;5.37;;;;;;;;;;4959085;28;20449;-80
2023/06/12 10:56:58;;;;;;;5.83;5.20;;;;;;;;;;4957750;28;20424;-80
2023/06/12 10:59:30;;;;;;;6.60;5.37;;;;;;;;;;4956772;28;20428;-82
2023/06/12 11:01:58;;;;;;;6.37;5.30;;;;;;;;;;4959640;28;20487;-79
2023/06/12 11:04:27;;;;;;;10.67;5.43;;;;;;;;;;4958111;28;20464;-80
2023/06/12 11:06:55;;;;;;;6.80;6.17;;;;;;;;;;4958065;28;20493;-80
2023/06/12 11:09:23;;;;;;;4.70;4.30;;;;;;;;;;4960083;28;20423;-78
2023/06/12 11:11:51;;;;;;;4.60;4.23;;;;;;;;;;4958712;28;20857;-84
2023/06/12 11:14:25;;;;;;;9.97;5.57;;;;;;;;;;4960178;28;20967;-80
2023/06/12 11:16:57;;;;;;;6.53;5.83;;;;;;;;;;4959017;28;20443;-80
2023/06/12 11:19:28;;;;;;;6.07;5.20;;;;;;;;;;4957968;28;20407;-84
2023/06/12 11:21:56;;;;;;;5.43;5.03;;;;;;;;;;4958487;28;20510;-79
2023/06/12 11:24:23;;;;;;;5.77;5.27;;;;;;;;;;4958178;28;20424;-84
2023/06/12 11:26:53;;;;;;;5.33;4.80;;;;;;;;;;4957661;28;21038;-83
2023/06/12 11:29:25;;;;;;;5.77;5.27;;;;;;;;;;4958112;28;20420;-80
2023/06/12 11:32:01;;;;;;;5.40;5.00;;;;;;;;;;4959552;28;20518;-82
2023/06/12 11:34:35;;;;;;;7.80;4.63;;;;;;;;;;4960698;28;20546;-77
2023/06/12 11:37:17;;;;;;;5.07;4.77;;;;;;;;;;4960355;28;20613;-80
2023/06/12 11:39:44;;;;;;;5.13;4.73;;;;;;;;;;4959523;28;20511;-78
2023/06/12 11:42:16;;;;;;;6.33;5.13;;;;;;;;;;4956892;28;20450;-78
2023/06/12 11:44:43;;;;;;;7.10;4.90;;;;;;;;;;4960250;28;20437;-80
2023/06/12 11:47:13;;;;;;;5.27;4.87;;;;;;;;;;4968978;28;20463;-81
2023/06/12 11:49:44;;;;;;;5.93;5.13;;;;;;;;;;4966515;28;20465;-80
2023/06/12 11:52:12;;;;;;;4.67;4.27;;;;;;;;;;4959410;28;20538;-79
2023/06/12 11:54:55;;;;;;;5.40;4.90;;;;;;;;;;4958129;28;20418;-82
2023/06/12 11:57:26;;;;;;;5.07;4.77;;;;;;;;;;4958956;28;20437;-82
2023/06/12 11:59:57;;;;;;;5.73;4.70;;;;;;;;;;4958542;29;20455;-82
2023/06/12 12:02:29;;;;;;;6.00;5.40;;;;;;;;;;4959638;28;20435;-80
2023/06/12 12:04:58;;;;;;;4.80;4.50;;;;;;;;;;4959324;28;20423;-79
2023/06/12 12:07:29;;;;;;;5.43;4.93;;;;;;;;;;4962282;28;20448;-80
2023/06/12 12:10:06;;;;;;;4.73;4.33;;;;;;;;;;4965225;28;20864;-79
2023/06/12 12:12:46;;;;;;;4.97;4.67;;;;;;;;;;4951541;28;20788;-80
2023/06/12 12:15:14;;;;;;;5.77;4.53;;;;;;;;;;4953003;28;20670;-82
2023/06/12 12:17:43;;;;;;;6.63;5.00;;;;;;;;;;4963549;28;20424;-82
2023/06/12 12:20:14;;;;;;;7.43;5.30;;;;;;;;;;4961397;28;20845;-80
2023/06/12 12:22:43;;;;;;;6.13;4.47;;;;;;;;;;4971640;28;20463;-81
2023/06/12 12:25:15;;;;;;;8.10;4.80;;;;;;;;;;4969677;28;20421;-84
2023/06/12 12:27:44;;;;;;;4.97;4.57;;;;;;;;;;4966366;28;20454;-78
2023/06/12 12:30:15;;;;;;;5.73;5.20;;;;;;;;;;4964028;28;20609;-85
2023/06/12 12:32:44;;;;;;;8.20;4.97;;;;;;;;;;4960537;28;20551;-82
2023/06/12 12:35:13;;;;;;;6.30;4.53;;;;;;;;;;4963000;28;20457;-81
2023/06/12 12:37:40;;;;;;;5.47;4.97;;;;;;;;;;4968059;28;20442;-81
2023/06/12 12:40:13;;;;;;;5.67;5.20;;;;;;;;;;4961718;28;20424;-80
2023/06/12 12:42:41;;;;;;;5.23;4.73;;;;;;;;;;4954911;28;20428;-85
2023/06/12 12:45:10;;;;;;;8.63;4.70;;;;;;;;;;4960305;29;20462;-80
2023/06/12 12:47:41;;;;;;;5.33;4.77;;;;;;;;;;4965043;28;20438;-83
2023/06/12 12:50:09;;;;;;;4.87;4.40;;;;;;;;;;4961752;28;20424;-79
2023/06/12 12:52:47;;;;;;;6.07;4.90;;;;;;;;;;4966940;28;20442;-84
2023/06/12 12:55:17;;;;;;;5.17;4.70;;;;;;;;;;4957149;28;20427;-85
2023/06/12 12:57:45;;;;;;;4.70;4.27;;;;;;;;;;4962467;28;20532;-80
2023/06/12 13:00:19;;;;;;;5.43;4.57;;;;;;;;;;4964291;28;20648;-81
2023/06/12 13:02:47;;;;;;;7.43;5.50;;;;;;;;;;4959001;28;20966;-79
2023/06/12 13:05:16;;;;;;;11.60;4.70;;;;;;;;;;4968239;28;20514;-79
2023/06/12 13:07:45;;;;;;;5.33;4.93;;;;;;;;;;4966803;28;20448;-81
2023/06/12 13:10:19;;;;;;;5.80;5.20;;;;;;;;;;4963815;28;20412;-80
2023/06/12 13:12:48;;;;;;;6.03;4.90;;;;;;;;;;4971688;28;20520;-82
2023/06/12 13:15:25;;;;;;;5.60;5.20;;;;;;;;;;4972280;28;20408;-85
2023/06/12 13:18:04;;;;;;;7.43;4.30;;;;;;;;;;4969393;28;20449;-82
2023/06/12 13:20:32;;;;;;;5.53;5.13;;;;;;;;;;4963909;28;20417;-82
2023/06/12 13:22:59;;;;;;;7.60;4.87;;;;;;;;;;4958612;28;20482;-78
2023/06/12 13:25:27;;;;;;;4.87;4.37;;;;;;;;;;4951635;28;20507;-82
2023/06/12 13:27:54;;;;;;;5.20;4.80;;;;;;;;;;4959320;29;20444;-79
2023/06/12 13:30:22;;;;;;;5.50;5.00;;;;;;;;;;4960958;28;20453;-81
2023/06/12 13:32:52;;;;;;;6.73;4.60;;;;;;;;;;4960673;28;20464;-82
2023/06/12 13:35:19;;;;;;;4.70;4.40;;;;;;;;;;4967900;28;20487;-83
2023/06/12 13:37:50;;;;;;;4.73;4.07;;;;;;;;;;4960465;28;20420;-80
2023/06/12 13:40:17;;;;;;;4.83;4.40;;;;;;;;;;4960913;28;20795;-79
2023/06/12 13:42:46;;;;;;;4.47;4.00;;;;;;;;;;4960396;28;20634;-81
2023/06/12 13:45:16;;;;;;;4.90;4.40;;;;;;;;;;4959410;28;20531;-86
2023/06/12 13:47:46;;;;;;;5.30;4.90;;;;;;;;;;4967544;28;20423;-82
2023/06/12 13:50:14;;;;;;;5.03;4.03;;;;;;;;;;4956315;28;20475;-80
2023/06/12 13:52:42;;;;;;;4.87;4.50;;;;;;;;;;4959290;28;20466;-82
2023/06/12 13:55:10;;;;;;;4.50;4.10;;;;;;;;;;4958997;28;20412;-82
2023/06/12 13:57:42;;;;;;;4.73;4.10;;;;;;;;;;4957653;28;20434;-79
2023/06/12 14:00:09;;;;;;;6.30;4.87;;;;;;;;;;4957438;28;20740;-80
2023/06/12 14:02:38;;;;;;;4.50;4.10;;;;;;;;;;4950462;28;20779;-82
2023/06/12 14:05:06;;;;;;;4.60;4.20;;;;;;;;;;4959254;28;20491;-83
2023/06/12 14:07:36;;;;;;;6.70;3.93;;;;;;;;;;4960498;28;20415;-78
2023/06/12 14:10:07;;;;;;;4.30;4.00;;;;;;;;;;4965516;28;20420;-81
2023/06/12 14:12:35;;;;;;;4.33;4.03;;;;;;;;;;4957582;28;20496;-79
2023/06/12 14:15:04;;;;;;;8.60;4.47;;;;;;;;;;4958808;28;20774;-80
2023/06/12 14:17:32;;;;;;;4.43;4.10;;;;;;;;;;4958628;28;20449;-82
2023/06/12 14:19:59;;;;;;;4.53;4.10;;;;;;;;;;4959979;29;20441;-83
2023/06/12 14:22:28;;;;;;;4.67;4.13;;;;;;;;;;4955685;28;20517;-80
2023/06/12 14:24:55;;;;;;;3.93;3.73;;;;;;;;;;4959294;28;20474;-84
2023/06/12 14:27:23;;;;;;;7.20;4.10;;;;;;;;;;4956684;28;20467;-82
2023/06/12 14:29:50;;;;;;;4.20;4.00;;;;;;;;;;4963794;28;20459;-82
2023/06/12 14:32:17;;;;;;;6.13;4.47;;;;;;;;;;4961777;28;20945;-79
2023/06/12 14:34:45;;;;;;;4.53;3.63;;;;;;;;;;4965488;28;20432;-84
2023/06/12 14:37:12;;;;;;;3.73;3.47;;;;;;;;;;4964545;28;20462;-81
2023/06/12 14:39:41;;;;;;;4.00;3.70;;;;;;;;;;4957438;28;20512;-83
2023/06/12 14:42:10;;;;;;;3.67;3.37;;;;;;;;;;4958931;28;20480;-82
2023/06/12 14:44:37;;;;;;;6.63;3.90;;;;;;;;;;4956622;28;20448;-80
2023/06/12 14:47:05;;;;;;;4.60;4.30;;;;;;;;;;4956864;29;20513;-80
2023/06/12 14:49:32;;;;;;;5.00;3.80;;;;;;;;;;4958965;28;20416;-80
2023/06/12 14:51:59;;;;;;;4.50;4.10;;;;;;;;;;4957866;29;20551;-80